createdAt,value
2022-08-05T04:00:33.412Z,16.00
2022-08-05T04:01:33.404Z,16.00
2022-08-05T04:02:34.792Z,20.00
2022-08-05T04:03:33.355Z,24.00
2022-08-05T04:04:33.338Z,28.00
2022-08-05T04:05:34.415Z,28.00
2022-08-05T04:06:33.316Z,28.00
2022-08-05T04:07:33.313Z,32.00
2022-08-05T04:08:36.307Z,32.00
2022-08-05T04:09:36.668Z,32.00
2022-08-05T04:10:37.379Z,32.00
2022-08-05T04:11:50.523Z,32.00
2022-08-05T04:13:04.568Z,32.00
2022-08-05T04:14:04.033Z,24.00
2022-08-05T04:15:04.021Z,24.00
2022-08-05T04:16:04.570Z,24.00
2022-08-05T04:17:04.014Z,28.00
2022-08-05T04:18:03.998Z,40.00
2022-08-05T04:19:04.027Z,56.00
2022-08-05T04:20:04.963Z,68.00
2022-08-05T04:21:04.110Z,68.00
2022-08-05T04:22:09.159Z,68.00
2022-08-05T04:23:04.946Z,68.00
2022-08-05T04:24:19.732Z,68.00
2022-08-05T04:25:04.909Z,88.00
2022-08-05T04:26:03.896Z,100.00
2022-08-05T04:27:03.887Z,92.00
2022-08-05T04:28:11.131Z,108.00
2022-08-05T04:29:07.383Z,112.00
2022-08-05T04:30:03.991Z,116.00
2022-08-05T04:31:08.311Z,128.00
2022-08-05T04:32:04.842Z,128.00
2022-08-05T04:33:03.822Z,128.00
2022-08-05T04:34:18.397Z,132.00
2022-08-05T04:35:17.624Z,148.00
2022-08-05T04:36:11.151Z,164.00
2022-08-05T04:37:04.905Z,168.00
2022-08-05T04:38:06.745Z,184.00
2022-08-05T04:39:03.810Z,184.00
2022-08-05T04:40:03.748Z,184.00
2022-08-05T04:41:03.735Z,204.00
2022-08-05T04:42:03.884Z,244.00
2022-08-05T04:43:03.726Z,252.00
2022-08-05T04:44:09.434Z,300.00
2022-08-05T04:45:04.700Z,300.00
2022-08-05T04:46:08.704Z,308.00
2022-08-05T04:47:09.099Z,312.00
2022-08-05T04:48:04.658Z,380.00
2022-08-05T04:49:03.745Z,440.00
2022-08-05T04:50:11.230Z,484.00
2022-08-05T04:51:11.083Z,556.00
2022-08-05T04:52:04.610Z,496.00
2022-08-05T04:53:03.602Z,460.00
2022-08-05T04:54:03.604Z,396.00
2022-08-05T04:55:14.254Z,384.00
2022-08-05T04:56:33.028Z,372.00
2022-08-05T04:57:09.610Z,388.00
2022-08-05T04:58:03.559Z,416.00
2022-08-05T04:59:21.722Z,420.00
2022-08-05T05:00:04.524Z,420.00
2022-08-05T05:01:03.576Z,420.00
2022-08-05T05:02:35.575Z,380.00
2022-08-05T05:03:04.539Z,388.00
2022-08-05T05:04:03.496Z,416.00
2022-08-05T05:05:03.509Z,452.00
2022-08-05T05:06:40.020Z,616.00
2022-08-05T05:07:04.450Z,708.00
2022-08-05T05:08:14.459Z,780.00
2022-08-05T05:09:05.612Z,708.00
2022-08-05T05:10:03.411Z,628.00
2022-08-05T05:11:03.409Z,568.00
2022-08-05T05:12:03.389Z,628.00
2022-08-05T05:13:04.051Z,676.00
2022-08-05T05:14:03.399Z,784.00
2022-08-05T05:15:03.726Z,856.00
2022-08-05T05:16:06.040Z,908.00
2022-08-05T05:17:03.734Z,904.00
2022-08-05T05:18:03.323Z,804.00
2022-08-05T05:19:18.619Z,776.00
2022-08-05T05:20:04.307Z,896.00
2022-08-05T05:21:03.711Z,1020.00
2022-08-05T05:22:22.858Z,1140.00
2022-08-05T05:23:08.135Z,1012.00
2022-08-05T05:24:08.925Z,892.00
2022-08-05T05:25:16.854Z,772.00
2022-08-05T05:26:04.236Z,676.00
2022-08-05T05:27:03.229Z,620.00
2022-08-05T05:28:03.389Z,648.00
2022-08-05T05:29:14.228Z,800.00
2022-08-05T05:30:28.840Z,856.00
2022-08-05T05:31:05.662Z,1020.00
2022-08-05T05:32:03.171Z,1068.00
2022-08-05T05:33:03.786Z,872.00
2022-08-05T05:34:04.145Z,744.00
2022-08-05T05:35:03.235Z,668.00
2022-08-05T05:36:03.138Z,728.00
2022-08-05T05:37:03.125Z,780.00
2022-08-05T05:38:03.107Z,772.00
2022-08-05T05:39:03.790Z,828.00
2022-08-05T05:40:03.092Z,888.00
2022-08-05T05:41:08.094Z,1048.00
2022-08-05T05:42:03.090Z,1396.00
2022-08-05T05:43:03.048Z,1532.00
2022-08-05T05:44:03.042Z,1572.00
2022-08-05T05:45:04.041Z,1380.00
2022-08-05T05:46:03.014Z,1316.00
2022-08-05T05:47:04.627Z,1144.00
2022-08-05T05:48:06.061Z,912.00
2022-08-05T05:49:06.517Z,948.00
2022-08-05T05:50:04.183Z,900.00
2022-08-05T05:51:15.034Z,884.00
2022-08-05T05:52:08.972Z,880.00
2022-08-05T05:53:03.109Z,924.00
2022-08-05T05:54:03.939Z,956.00
2022-08-05T05:55:07.522Z,1004.00
2022-08-05T05:56:03.907Z,1016.00
2022-08-05T05:57:02.894Z,952.00
2022-08-05T05:58:02.884Z,1024.00
2022-08-05T05:59:05.117Z,860.00
2022-08-05T06:00:02.870Z,768.00
2022-08-05T06:01:12.569Z,704.00
2022-08-05T06:02:03.843Z,640.00
2022-08-05T06:03:40.757Z,612.00
2022-08-05T06:04:04.032Z,604.00
2022-08-05T06:05:03.454Z,604.00
2022-08-05T06:06:03.798Z,612.00
2022-08-05T06:07:02.866Z,628.00
2022-08-05T06:08:03.882Z,668.00
2022-08-05T06:09:03.249Z,716.00
2022-08-05T06:10:05.902Z,760.00
2022-08-05T06:11:04.046Z,784.00
2022-08-05T06:12:03.060Z,852.00
2022-08-05T06:13:02.718Z,988.00
2022-08-05T06:14:07.760Z,1016.00
2022-08-05T06:15:02.704Z,1036.00
2022-08-05T06:16:29.281Z,1120.00
2022-08-05T06:17:22.388Z,1160.00
2022-08-05T06:18:03.666Z,1124.00
2022-08-05T06:19:05.836Z,1088.00
2022-08-05T06:20:03.651Z,1072.00
2022-08-05T06:21:02.628Z,1084.00
2022-08-05T06:22:03.621Z,1088.00
2022-08-05T06:23:04.065Z,1112.00
2022-08-05T06:24:02.602Z,1164.00
2022-08-05T06:25:59.079Z,1172.00
2022-08-05T06:26:13.422Z,1200.00
2022-08-05T06:27:03.944Z,1188.00
2022-08-05T06:28:11.106Z,1192.00
2022-08-05T06:29:23.560Z,1236.00
2022-08-05T06:30:16.831Z,1284.00
2022-08-05T06:31:11.317Z,1360.00
2022-08-05T06:32:03.511Z,1408.00
2022-08-05T06:33:02.499Z,1476.00
2022-08-05T06:34:07.072Z,1560.00
2022-08-05T06:35:06.025Z,1816.00
2022-08-05T06:36:10.307Z,2016.00
2022-08-05T06:37:02.451Z,1832.00
2022-08-05T06:38:11.228Z,1572.00
2022-08-05T06:39:03.489Z,1748.00
2022-08-05T06:40:02.429Z,2128.00
2022-08-05T06:41:02.418Z,2892.00
2022-08-05T06:42:04.061Z,3312.00
2022-08-05T06:43:02.423Z,3160.00
2022-08-05T06:44:02.373Z,3168.00
2022-08-05T06:45:05.265Z,2968.00
2022-08-05T06:46:04.236Z,2684.00
2022-08-05T06:47:10.390Z,2272.00
2022-08-05T06:48:47.060Z,1896.00
2022-08-05T06:49:07.561Z,1888.00
2022-08-05T06:50:05.413Z,1776.00
2022-08-05T06:51:02.299Z,2276.00
2022-08-05T06:52:03.298Z,2676.00
2022-08-05T06:53:03.971Z,2908.00
2022-08-05T06:54:03.275Z,3468.00
2022-08-05T06:55:02.538Z,3832.00
2022-08-05T06:56:02.268Z,3928.00
2022-08-05T06:57:58.179Z,3748.00
2022-08-05T06:58:29.531Z,3644.00
2022-08-05T06:59:03.210Z,3184.00
2022-08-05T07:00:02.196Z,2820.00
2022-08-05T07:01:02.225Z,3004.00
2022-08-05T07:02:02.174Z,2824.00
2022-08-05T07:03:02.167Z,2820.00
2022-08-05T07:04:02.378Z,3380.00
2022-08-05T07:05:02.160Z,3764.00
2022-08-05T07:06:05.694Z,3900.00
2022-08-05T07:07:03.127Z,3548.00
2022-08-05T07:08:02.120Z,3136.00
2022-08-05T07:09:07.121Z,2912.00
2022-08-05T07:10:03.582Z,3376.00
2022-08-05T07:11:02.089Z,3832.00
2022-08-05T07:12:02.064Z,4228.00
2022-08-05T07:13:02.070Z,4356.00
2022-08-05T07:14:02.066Z,4380.00
2022-08-05T07:15:02.068Z,4892.00
2022-08-05T07:16:04.401Z,4944.00
2022-08-05T07:18:07.349Z,3364.00
2022-08-05T07:18:08.486Z,3576.00
2022-08-05T07:19:02.984Z,3192.00
2022-08-05T07:21:05.372Z,3416.00
2022-08-05T07:22:02.627Z,3204.00
2022-08-05T07:23:01.967Z,3072.00
2022-08-05T07:24:01.932Z,2492.00
2022-08-05T07:25:23.584Z,1944.00
2022-08-05T07:26:02.907Z,1524.00
2022-08-05T07:27:02.949Z,1304.00
2022-08-05T07:28:05.946Z,1212.00
2022-08-05T07:29:02.873Z,1320.00
2022-08-05T07:30:22.741Z,1508.00
2022-08-05T07:31:07.871Z,1836.00
2022-08-05T07:32:01.854Z,2516.00
2022-08-05T07:33:01.828Z,3048.00
2022-08-05T07:34:01.818Z,2896.00
2022-08-05T07:36:03.643Z,2340.00
2022-08-05T07:36:20.121Z,1720.00
2022-08-05T07:37:02.786Z,1872.00
2022-08-05T07:38:01.771Z,2192.00
2022-08-05T07:39:01.832Z,2452.00
2022-08-05T07:40:26.150Z,2808.00
2022-08-05T07:41:17.178Z,2820.00
2022-08-05T07:42:14.526Z,3132.00
2022-08-05T07:43:14.441Z,3528.00
2022-08-05T07:44:02.706Z,4364.00
2022-08-05T07:45:01.726Z,4428.00
2022-08-05T07:46:01.683Z,4992.00
2022-08-05T07:47:01.669Z,5264.00
2022-08-05T07:48:02.658Z,5020.00
2022-08-05T07:49:05.512Z,4084.00
2022-08-05T07:50:01.650Z,3268.00
2022-08-05T07:51:02.628Z,3148.00
2022-08-05T07:52:02.614Z,3316.00
2022-08-05T07:53:06.630Z,3792.00
2022-08-05T07:54:01.919Z,3388.00
2022-08-05T07:55:01.594Z,2660.00
2022-08-05T07:56:06.272Z,2268.00
2022-08-05T07:57:13.958Z,1912.00
2022-08-05T07:58:03.970Z,2064.00
2022-08-05T07:59:01.540Z,2000.00
2022-08-05T08:00:01.542Z,1908.00
2022-08-05T08:01:01.606Z,1636.00
2022-08-05T08:02:01.506Z,1752.00
2022-08-05T08:03:14.229Z,1832.00
2022-08-05T08:04:07.520Z,1684.00
2022-08-05T08:05:01.478Z,1260.00
2022-08-05T08:06:01.461Z,992.00
2022-08-05T08:07:01.450Z,996.00
2022-08-05T08:08:01.436Z,1196.00
2022-08-05T08:09:01.424Z,1408.00
2022-08-05T08:10:01.534Z,1636.00
2022-08-05T08:11:01.400Z,1944.00
2022-08-05T08:12:09.017Z,2352.00
2022-08-05T08:13:02.378Z,2652.00
2022-08-05T08:14:01.394Z,2508.00
2022-08-05T08:15:14.136Z,2276.00
2022-08-05T08:16:49.977Z,2144.00
2022-08-05T08:17:02.348Z,1956.00
2022-08-05T08:18:01.958Z,2040.00
2022-08-05T08:19:01.315Z,1688.00
2022-08-05T08:20:21.587Z,1448.00
2022-08-05T08:21:04.070Z,1404.00
2022-08-05T08:22:02.283Z,1268.00
2022-08-05T08:23:03.154Z,1244.00
2022-08-05T08:24:04.989Z,1240.00
2022-08-05T08:25:03.263Z,1388.00
2022-08-05T08:26:06.258Z,1516.00
2022-08-05T08:27:01.221Z,1700.00
2022-08-05T08:28:02.211Z,1780.00
2022-08-05T08:29:09.793Z,1820.00
2022-08-05T08:30:05.222Z,1816.00
2022-08-05T08:31:02.177Z,1712.00
2022-08-05T08:32:01.174Z,1532.00
2022-08-05T08:33:04.638Z,1224.00
2022-08-05T08:34:02.147Z,892.00
2022-08-05T08:35:01.180Z,768.00
2022-08-05T08:36:29.732Z,764.00
2022-08-05T08:37:07.130Z,844.00
2022-08-05T08:38:01.116Z,976.00
2022-08-05T08:39:01.612Z,944.00
2022-08-05T08:40:01.161Z,956.00
2022-08-05T08:41:01.072Z,1228.00
2022-08-05T08:42:02.276Z,1640.00
2022-08-05T08:45:04.465Z,1884.00
2022-08-05T08:45:23.786Z,1908.00
2022-08-05T08:45:24.690Z,1800.00
2022-08-05T08:46:02.013Z,1828.00
2022-08-05T08:47:00.997Z,1920.00
2022-08-05T08:48:22.671Z,2228.00
2022-08-05T08:50:06.141Z,2244.00
2022-08-05T08:50:22.565Z,2396.00
2022-08-05T08:51:23.283Z,2072.00
2022-08-05T08:52:13.457Z,1944.00
2022-08-05T08:53:01.933Z,1664.00
2022-08-05T08:54:01.917Z,1800.00
2022-08-05T08:55:00.917Z,1908.00
2022-08-05T08:56:03.384Z,1908.00
2022-08-05T08:57:00.884Z,1944.00
2022-08-05T08:58:00.872Z,2020.00
2022-08-05T08:59:14.652Z,2108.00
2022-08-05T09:00:01.858Z,2228.00
2022-08-05T09:01:00.979Z,2152.00
2022-08-05T09:02:01.094Z,2376.00
2022-08-05T09:03:00.814Z,2764.00
2022-08-05T09:04:00.805Z,2832.00
2022-08-05T09:05:16.508Z,3092.00
2022-08-05T09:06:08.971Z,3244.00
2022-08-05T09:07:01.769Z,3252.00
2022-08-05T09:08:01.762Z,3140.00
2022-08-05T09:09:01.198Z,3328.00
2022-08-05T09:10:05.774Z,3900.00
2022-08-05T09:11:00.726Z,4424.00
2022-08-05T09:12:13.357Z,4940.00
2022-08-05T09:13:05.056Z,5252.00
2022-08-05T09:14:53.907Z,5564.00
2022-08-05T09:15:04.706Z,7072.00
2022-08-05T09:16:00.670Z,6700.00
2022-08-05T09:17:00.657Z,7228.00
2022-08-05T09:18:00.650Z,7060.00
2022-08-05T09:19:00.635Z,7352.00
2022-08-05T09:20:02.630Z,8580.00
2022-08-05T09:21:05.635Z,7032.00
2022-08-05T09:22:23.172Z,6936.00
2022-08-05T09:23:05.068Z,7548.00
2022-08-05T09:24:02.433Z,7120.00
2022-08-05T09:25:00.569Z,7136.00
2022-08-05T09:26:06.316Z,7280.00
2022-08-05T09:27:01.571Z,8212.00
2022-08-05T09:28:03.800Z,8868.00
2022-08-05T09:29:01.529Z,12060.00
2022-08-05T09:30:06.067Z,8412.00
2022-08-05T09:31:01.514Z,11820.00
2022-08-05T09:32:45.508Z,15808.00
2022-08-05T09:33:01.481Z,11760.00
2022-08-05T09:34:00.510Z,8912.00
2022-08-05T09:35:00.460Z,9096.00
2022-08-05T09:36:03.634Z,7200.00
2022-08-05T09:37:01.438Z,7208.00
2022-08-05T09:38:12.594Z,7016.00
2022-08-05T09:39:01.461Z,8384.00
2022-08-05T09:40:00.508Z,6428.00
2022-08-05T09:41:00.412Z,6940.00
2022-08-05T09:42:00.391Z,6760.00
2022-08-05T09:43:05.414Z,12200.00
2022-08-05T09:44:00.362Z,11504.00
2022-08-05T09:45:17.223Z,10328.00
2022-08-05T09:46:07.082Z,8032.00
2022-08-05T09:47:01.333Z,7428.00
2022-08-05T09:48:01.340Z,7236.00
2022-08-05T09:49:07.955Z,8188.00
2022-08-05T09:50:03.431Z,8424.00
2022-08-05T09:51:00.421Z,8728.00
2022-08-05T09:52:00.271Z,10968.00
2022-08-05T09:53:00.264Z,13572.00
2022-08-05T09:54:05.272Z,6756.00
2022-08-05T09:55:00.262Z,6080.00
2022-08-05T09:56:04.573Z,5624.00
2022-08-05T09:57:01.560Z,5524.00
2022-08-05T09:58:00.369Z,5400.00
2022-08-05T09:59:00.193Z,5276.00
2022-08-05T10:00:02.633Z,5888.00
2022-08-05T10:01:00.192Z,5380.00
2022-08-05T10:02:00.177Z,5480.00
2022-08-05T10:03:00.223Z,5272.00
2022-08-05T10:04:00.556Z,5312.00
2022-08-05T10:05:05.188Z,5236.00
2022-08-05T10:06:01.844Z,5464.00
2022-08-05T10:07:01.495Z,5084.00
2022-08-05T10:08:35.463Z,5188.00
2022-08-05T10:09:01.081Z,5156.00
2022-08-05T10:10:04.082Z,5236.00
2022-08-05T10:11:01.080Z,5144.00
2022-08-05T10:12:02.805Z,5244.00
2022-08-05T10:13:01.039Z,4980.00
2022-08-05T10:14:00.077Z,5004.00
2022-08-05T10:15:00.019Z,5156.00
2022-08-05T10:16:05.042Z,8448.00
2022-08-05T10:16:59.999Z,18464.00
2022-08-05T10:18:00.012Z,11260.00
2022-08-05T10:19:00.001Z,6908.00
2022-08-05T10:20:04.289Z,7188.00
2022-08-05T10:21:08.467Z,7000.00
2022-08-05T10:22:00.953Z,7780.00
2022-08-05T10:22:59.941Z,8188.00
2022-08-05T10:24:01.331Z,8460.00
2022-08-05T10:24:59.912Z,8532.00
2022-08-05T10:25:59.906Z,8760.00
2022-08-05T10:27:04.971Z,9044.00
2022-08-05T10:28:12.924Z,8764.00
2022-08-05T10:29:00.965Z,8908.00
2022-08-05T10:30:06.736Z,11400.00
2022-08-05T10:32:48.988Z,8868.00
2022-08-05T10:32:51.500Z,8248.00
2022-08-05T10:33:02.464Z,8204.00
2022-08-05T10:33:59.809Z,8528.00
2022-08-05T10:35:01.028Z,9112.00
2022-08-05T10:36:00.199Z,8388.00
2022-08-05T10:36:59.774Z,7624.00
2022-08-05T10:38:04.788Z,7824.00
2022-08-05T10:38:59.808Z,8008.00
2022-08-05T10:40:16.681Z,10868.00
2022-08-05T10:41:00.774Z,15596.00
2022-08-05T10:42:01.247Z,9064.00
2022-08-05T10:42:59.711Z,6872.00
2022-08-05T10:43:59.705Z,6708.00
2022-08-05T10:44:59.690Z,5492.00
2022-08-05T10:46:06.360Z,6052.00
2022-08-05T10:47:00.665Z,10456.00
2022-08-05T10:48:31.438Z,7016.00
2022-08-05T10:49:08.076Z,6552.00
2022-08-05T10:50:35.133Z,11320.00
2022-08-05T10:51:05.651Z,15504.00
2022-08-05T10:52:02.508Z,7052.00
2022-08-05T10:52:59.601Z,6852.00
2022-08-05T10:54:01.523Z,10544.00
2022-08-05T10:55:00.588Z,7784.00
2022-08-05T10:56:03.488Z,12356.00
2022-08-05T10:57:00.580Z,7528.00
2022-08-05T10:57:59.548Z,7072.00
2022-08-05T10:59:11.395Z,10624.00
2022-08-05T11:00:03.740Z,7472.00
2022-08-05T11:01:02.829Z,13212.00
2022-08-05T11:02:05.387Z,16928.00
2022-08-05T11:03:23.409Z,11336.00
2022-08-05T11:04:00.539Z,10264.00
2022-08-05T11:04:59.466Z,19968.00
2022-08-05T11:05:59.458Z,16032.00
2022-08-05T11:06:59.456Z,23264.00
2022-08-05T11:08:01.775Z,15156.00
2022-08-05T11:09:00.434Z,11264.00
2022-08-05T11:10:04.120Z,44160.00
2022-08-05T11:11:01.058Z,24512.00
2022-08-05T11:11:59.405Z,34880.00
2022-08-05T11:13:01.048Z,10436.00
2022-08-05T11:13:59.387Z,43744.00
2022-08-05T11:15:19.069Z,11200.00
2022-08-05T11:16:02.098Z,11128.00
2022-08-05T11:17:02.730Z,19392.00
2022-08-05T11:18:07.619Z,25280.00
2022-08-05T11:19:00.315Z,24224.00
2022-08-05T11:20:10.048Z,24864.00
2022-08-05T11:21:00.332Z,75872.00
2022-08-05T11:21:59.304Z,29120.00
2022-08-05T11:23:05.899Z,14880.00
2022-08-05T11:24:05.437Z,68704.00
2022-08-05T11:25:16.507Z,61056.00
2022-08-05T11:26:05.014Z,59424.00
2022-08-05T11:27:00.237Z,68064.00
2022-08-05T11:28:04.242Z,13168.00
2022-08-05T11:29:06.863Z,25952.00
2022-08-05T11:30:00.245Z,53536.00
2022-08-05T11:30:59.186Z,13036.00
2022-08-05T11:32:00.699Z,40096.00
2022-08-05T11:32:59.163Z,14116.00
2022-08-05T11:33:59.152Z,24448.00
2022-08-05T11:34:59.148Z,12572.00
2022-08-05T11:36:08.198Z,14096.00
2022-08-05T11:37:00.130Z,13548.00
2022-08-05T11:38:26.731Z,11892.00
2022-08-05T11:39:00.307Z,16000.00
2022-08-05T11:40:03.249Z,10368.00
2022-08-05T11:41:35.426Z,9992.00
2022-08-05T11:42:04.189Z,6332.00
2022-08-05T11:42:59.081Z,5528.00
2022-08-05T11:44:05.114Z,6912.00
2022-08-05T11:45:00.034Z,10252.00
2022-08-05T11:46:23.416Z,14880.00
2022-08-05T11:47:14.092Z,11516.00
2022-08-05T11:48:00.004Z,13072.00
2022-08-05T11:48:58.998Z,11568.00
2022-08-05T11:49:58.980Z,14656.00
2022-08-05T11:50:58.973Z,10328.00
2022-08-05T11:51:58.969Z,11588.00
2022-08-05T11:52:58.955Z,24192.00
2022-08-05T11:54:03.961Z,20608.00
2022-08-05T11:54:58.962Z,10868.00
2022-08-05T11:55:59.937Z,23264.00
2022-08-05T11:56:58.916Z,14584.00
2022-08-05T11:58:10.115Z,61408.00
2022-08-05T11:58:59.882Z,18272.00
2022-08-05T11:59:58.869Z,37184.00
2022-08-05T12:00:58.861Z,48768.00
2022-08-05T12:01:58.864Z,67008.00
2022-08-05T12:02:58.914Z,60704.00
2022-08-05T12:03:58.826Z,57920.00
2022-08-05T12:04:59.273Z,63904.00
2022-08-05T12:05:58.809Z,58912.00
2022-08-05T12:07:03.832Z,53024.00
2022-08-05T12:08:07.420Z,60576.00
2022-08-05T12:08:59.796Z,60160.00
2022-08-05T12:10:01.898Z,65120.00
2022-08-05T12:10:59.755Z,58816.00
2022-08-05T12:11:59.751Z,39392.00
2022-08-05T12:12:59.752Z,59392.00
2022-08-05T12:14:03.893Z,27968.00
2022-08-05T12:14:59.708Z,55040.00
2022-08-05T12:15:58.700Z,30656.00
2022-08-05T12:16:58.711Z,46528.00
2022-08-05T12:18:04.372Z,51744.00
2022-08-05T12:18:59.667Z,42496.00
2022-08-05T12:20:26.248Z,38144.00
2022-08-05T12:20:59.675Z,35520.00
2022-08-05T12:21:58.685Z,40800.00
2022-08-05T12:22:58.625Z,32864.00
2022-08-05T12:24:00.161Z,41408.00
2022-08-05T12:24:59.612Z,43968.00
2022-08-05T12:25:58.589Z,37504.00
2022-08-05T12:26:58.594Z,42656.00
2022-08-05T12:27:58.569Z,40800.00
2022-08-05T12:28:58.561Z,23072.00
2022-08-05T12:29:58.548Z,38304.00
2022-08-05T12:31:01.979Z,31488.00
2022-08-05T12:31:58.540Z,25984.00
2022-08-05T12:33:07.491Z,24576.00
2022-08-05T12:33:59.528Z,23712.00
2022-08-05T12:34:58.524Z,24576.00
2022-08-05T12:35:59.617Z,32096.00
2022-08-05T12:36:58.485Z,17216.00
2022-08-05T12:37:58.464Z,12416.00
2022-08-05T12:38:58.558Z,9724.00
2022-08-05T12:39:59.059Z,10060.00
2022-08-05T12:40:59.434Z,8452.00
2022-08-05T12:41:58.431Z,7704.00
2022-08-05T12:42:58.456Z,6544.00
2022-08-05T12:43:58.399Z,6732.00
2022-08-05T12:44:58.389Z,5292.00
2022-08-05T12:46:03.403Z,4596.00
2022-08-05T12:46:58.401Z,3968.00
2022-08-05T12:48:17.699Z,4428.00
2022-08-05T12:48:59.348Z,6824.00
2022-08-05T12:50:02.018Z,7968.00
2022-08-05T12:50:58.324Z,8712.00
2022-08-05T12:52:12.789Z,7544.00
2022-08-05T12:52:59.309Z,7092.00
2022-08-05T12:53:58.321Z,6968.00
2022-08-05T12:54:58.281Z,6248.00
2022-08-05T12:55:58.268Z,6484.00
2022-08-05T12:56:58.283Z,7120.00
2022-08-05T12:58:49.407Z,8104.00
2022-08-05T12:59:05.880Z,8616.00
2022-08-05T13:01:57.782Z,9232.00
2022-08-05T13:02:00.256Z,7944.00
2022-08-05T13:02:07.410Z,4820.00
2022-08-05T13:02:59.242Z,4732.00
2022-08-05T13:03:58.189Z,5876.00
2022-08-05T13:04:58.708Z,7144.00
2022-08-05T13:05:58.160Z,8228.00
2022-08-05T13:06:58.166Z,8232.00
2022-08-05T13:08:00.566Z,8656.00
2022-08-05T13:08:58.128Z,7676.00
2022-08-05T13:09:58.116Z,7040.00
2022-08-05T13:10:58.111Z,6852.00
2022-08-05T13:12:03.734Z,6688.00
2022-08-05T13:12:58.767Z,7040.00
2022-08-05T13:14:04.929Z,6448.00
2022-08-05T13:15:05.129Z,6720.00
2022-08-05T13:15:59.053Z,5932.00
2022-08-05T13:16:58.051Z,6408.00
2022-08-05T13:17:59.344Z,6808.00
2022-08-05T13:18:58.575Z,5868.00
2022-08-05T13:19:58.016Z,5440.00
2022-08-05T13:20:58.039Z,6068.00
2022-08-05T13:21:57.994Z,6824.00
2022-08-05T13:22:57.979Z,6516.00
2022-08-05T13:23:58.697Z,6024.00
2022-08-05T13:25:05.788Z,6408.00
2022-08-05T13:25:58.985Z,6676.00
2022-08-05T13:26:57.977Z,6380.00
2022-08-05T13:27:57.921Z,5844.00
2022-08-05T13:28:59.319Z,5276.00
2022-08-05T13:30:32.328Z,4996.00
2022-08-05T13:30:58.888Z,5108.00
2022-08-05T13:32:04.267Z,4936.00
2022-08-05T13:33:01.560Z,4724.00
2022-08-05T13:34:21.627Z,4552.00
2022-08-05T13:34:58.845Z,4708.00
2022-08-05T13:35:57.831Z,4544.00
2022-08-05T13:36:57.822Z,4856.00
2022-08-05T13:38:04.902Z,5412.00
2022-08-05T13:38:57.910Z,5136.00
2022-08-05T13:40:14.188Z,5316.00
2022-08-05T13:40:58.854Z,5668.00
2022-08-05T13:41:57.808Z,4660.00
2022-08-05T13:42:57.771Z,4332.00
2022-08-05T13:43:57.745Z,4216.00
2022-08-05T13:44:57.739Z,4144.00
2022-08-05T13:45:57.723Z,3904.00
2022-08-05T13:47:02.229Z,3532.00
2022-08-05T13:48:08.804Z,4100.00
2022-08-05T13:49:00.873Z,4764.00
2022-08-05T13:49:57.677Z,4020.00
2022-08-05T13:51:02.693Z,4152.00
2022-08-05T13:51:57.682Z,4468.00
2022-08-05T13:52:57.682Z,4564.00
2022-08-05T13:53:58.044Z,5520.00
2022-08-05T13:54:57.624Z,5532.00
2022-08-05T13:56:01.956Z,4688.00
2022-08-05T13:56:57.608Z,4544.00
2022-08-05T13:57:57.611Z,4840.00
2022-08-05T13:58:57.582Z,5652.00
2022-08-05T14:00:01.751Z,5016.00
2022-08-05T14:00:57.562Z,5264.00
2022-08-05T14:02:00.061Z,4360.00
2022-08-05T14:02:57.661Z,4016.00
2022-08-05T14:04:02.551Z,5504.00
2022-08-05T14:05:00.770Z,4296.00
2022-08-05T14:06:25.486Z,4868.00
2022-08-05T14:07:12.050Z,3992.00
2022-08-05T14:08:03.282Z,4000.00
2022-08-05T14:08:59.420Z,4308.00
2022-08-05T14:09:57.460Z,4864.00
2022-08-05T14:11:03.104Z,3944.00
2022-08-05T14:12:00.613Z,3964.00
2022-08-05T14:12:58.437Z,3952.00
2022-08-05T14:13:57.790Z,4636.00
2022-08-05T14:14:57.405Z,3900.00
2022-08-05T14:16:04.794Z,3824.00
2022-08-05T14:17:03.406Z,3684.00
2022-08-05T14:17:59.703Z,4064.00
2022-08-05T14:18:57.364Z,4248.00
2022-08-05T14:20:04.741Z,3680.00
2022-08-05T14:20:58.351Z,3292.00
2022-08-05T14:22:08.794Z,3436.00
2022-08-05T14:22:58.331Z,3384.00
2022-08-05T14:23:57.305Z,3064.00
2022-08-05T14:24:57.297Z,3100.00
2022-08-05T14:25:58.822Z,3268.00
2022-08-05T14:27:17.125Z,2988.00
2022-08-05T14:28:03.305Z,3028.00
2022-08-05T14:28:57.357Z,3584.00
2022-08-05T14:29:57.310Z,3892.00
2022-08-05T14:30:57.230Z,3324.00
2022-08-05T14:32:12.920Z,3580.00
2022-08-05T14:32:58.218Z,3456.00
2022-08-05T14:34:00.461Z,3540.00
2022-08-05T14:34:57.679Z,3196.00
2022-08-05T14:35:57.190Z,2716.00
2022-08-05T14:36:58.930Z,3064.00
2022-08-05T14:37:57.164Z,2972.00
2022-08-05T14:39:02.686Z,3184.00
2022-08-05T14:39:58.974Z,3016.00
2022-08-05T14:40:57.121Z,3116.00
2022-08-05T14:42:19.104Z,2536.00
2022-08-05T14:42:58.113Z,2316.00
2022-08-05T14:44:02.360Z,3372.00
2022-08-05T14:44:58.078Z,2648.00
2022-08-05T14:45:57.068Z,3112.00
2022-08-05T14:46:57.067Z,2460.00
2022-08-05T14:48:03.543Z,2248.00
2022-08-05T14:48:58.034Z,2072.00
2022-08-05T14:50:12.790Z,2276.00
2022-08-05T14:50:58.013Z,2596.00
2022-08-05T14:51:57.011Z,2556.00
2022-08-05T14:52:58.656Z,2392.00
2022-08-05T14:54:26.370Z,3244.00
2022-08-05T14:54:57.966Z,3776.00
2022-08-05T14:55:56.955Z,3148.00
2022-08-05T14:56:56.948Z,2764.00
2022-08-05T14:57:56.942Z,2964.00
2022-08-05T14:58:56.922Z,2632.00
2022-08-05T14:59:56.910Z,2452.00
2022-08-05T15:01:01.922Z,2152.00
2022-08-05T15:01:56.952Z,2416.00
2022-08-05T15:02:56.982Z,1804.00
2022-08-05T15:03:56.933Z,3000.00
2022-08-05T15:04:56.879Z,3536.00
2022-08-05T15:06:07.857Z,3476.00
2022-08-05T15:06:57.832Z,3124.00
2022-08-05T15:08:06.286Z,2940.00
2022-08-05T15:09:03.527Z,2388.00
2022-08-05T15:09:57.799Z,2644.00
2022-08-05T15:10:56.791Z,2740.00
2022-08-05T15:12:01.801Z,2772.00
2022-08-05T15:13:03.517Z,3196.00
2022-08-05T15:13:57.893Z,3584.00
2022-08-05T15:14:56.749Z,3468.00
2022-08-05T15:15:56.736Z,2840.00
2022-08-05T15:16:56.724Z,2348.00
2022-08-05T15:17:56.721Z,2548.00
2022-08-05T15:18:56.701Z,2372.00
2022-08-05T15:19:56.988Z,2492.00
2022-08-05T15:20:56.679Z,2376.00
2022-08-05T15:21:57.999Z,2368.00
2022-08-05T15:23:01.697Z,2720.00
2022-08-05T15:23:56.678Z,2844.00
2022-08-05T15:24:56.638Z,2668.00
2022-08-05T15:25:59.730Z,2584.00
2022-08-05T15:26:57.613Z,3336.00
2022-08-05T15:27:56.605Z,3416.00
2022-08-05T15:28:56.601Z,3140.00
2022-08-05T15:29:56.967Z,3572.00
2022-08-05T15:30:56.571Z,3404.00
2022-08-05T15:31:56.556Z,3616.00
2022-08-05T15:32:56.547Z,3456.00
2022-08-05T15:34:19.073Z,3744.00
2022-08-05T15:34:57.526Z,3800.00
2022-08-05T15:35:56.513Z,3984.00
2022-08-05T15:36:56.533Z,3640.00
2022-08-05T15:38:33.060Z,3408.00
2022-08-05T15:40:39.692Z,3124.00
2022-08-05T15:41:01.465Z,3512.00
2022-08-05T15:41:21.926Z,3588.00
2022-08-05T15:41:59.300Z,3504.00
2022-08-05T15:43:01.552Z,3524.00
2022-08-05T15:43:57.608Z,3272.00
2022-08-05T15:45:01.438Z,3132.00
2022-08-05T15:46:00.755Z,3024.00
2022-08-05T15:46:57.390Z,3028.00
2022-08-05T15:47:57.673Z,3132.00
2022-08-05T15:49:01.254Z,3860.00
2022-08-05T15:49:59.468Z,3172.00
2022-08-05T15:50:56.592Z,3512.00
2022-08-05T15:52:04.367Z,3280.00
2022-08-05T15:53:01.860Z,2940.00
2022-08-05T15:53:58.925Z,2452.00
2022-08-05T15:54:56.568Z,2700.00
2022-08-05T15:56:04.513Z,2792.00
2022-08-05T15:56:56.280Z,2496.00
2022-08-05T15:57:56.270Z,2520.00
2022-08-05T15:58:56.265Z,2640.00
2022-08-05T15:59:57.770Z,2980.00
2022-08-05T16:01:11.678Z,2392.00
2022-08-05T16:01:57.277Z,2380.00
2022-08-05T16:02:56.276Z,2460.00
2022-08-05T16:03:56.211Z,2764.00
2022-08-05T16:04:56.187Z,3100.00
2022-08-05T16:05:56.178Z,3308.00
2022-08-05T16:07:01.189Z,2816.00
2022-08-05T16:07:57.212Z,2844.00